createdAt,value
2023-01-13T00:00:19.729Z,77.97
2023-01-13T00:01:19.712Z,77.67
2023-01-13T00:02:19.712Z,78.17
2023-01-13T00:03:19.678Z,78.89
2023-01-13T00:04:19.661Z,79.00
2023-01-13T00:05:19.648Z,79.13
2023-01-13T00:06:19.634Z,79.54
2023-01-13T00:07:19.625Z,79.64
2023-01-13T00:08:19.612Z,80.05
2023-01-13T00:09:19.594Z,79.50
2023-01-13T00:10:19.585Z,80.77
2023-01-13T00:11:19.565Z,79.44
2023-01-13T00:12:19.556Z,80.26
2023-01-13T00:13:19.562Z,79.24
2023-01-13T00:14:19.530Z,78.72
2023-01-13T00:15:19.511Z,78.69
2023-01-13T00:16:19.601Z,78.17
2023-01-13T00:17:19.491Z,78.17
2023-01-13T00:18:19.471Z,78.79
2023-01-13T00:19:19.461Z,78.42
2023-01-13T00:20:19.445Z,79.20
2023-01-13T00:21:19.439Z,80.02
2023-01-13T00:22:19.427Z,80.05
2023-01-13T00:23:19.401Z,80.46
2023-01-13T00:24:19.391Z,80.05
2023-01-13T00:25:19.381Z,80.36
2023-01-13T00:26:19.372Z,80.43
2023-01-13T00:27:19.350Z,81.18
2023-01-13T00:28:19.339Z,80.88
2023-01-13T00:29:19.344Z,81.45
2023-01-13T00:30:19.315Z,81.12
2023-01-13T00:31:19.449Z,80.46
2023-01-13T00:32:19.281Z,81.18
2023-01-13T00:33:19.275Z,80.88
2023-01-13T00:34:19.256Z,81.08
2023-01-13T00:35:19.250Z,81.52
2023-01-13T00:36:19.232Z,79.75
2023-01-13T00:37:19.215Z,80.98
2023-01-13T00:38:19.200Z,80.36
2023-01-13T00:39:19.193Z,80.33
2023-01-13T00:40:19.173Z,81.45
2023-01-13T00:41:19.167Z,80.05
2023-01-13T00:42:19.146Z,79.85
2023-01-13T00:43:19.132Z,80.33
2023-01-13T00:44:19.120Z,81.04
2023-01-13T00:45:19.128Z,81.08
2023-01-13T00:46:19.128Z,80.36
2023-01-13T00:47:19.079Z,80.26
2023-01-13T00:48:19.065Z,79.30
2023-01-13T00:49:19.057Z,79.50
2023-01-13T00:50:19.045Z,80.46
2023-01-13T00:51:19.029Z,81.18
2023-01-13T00:52:19.014Z,80.33
2023-01-13T00:53:19.002Z,80.67
2023-01-13T00:54:18.985Z,81.18
2023-01-13T00:55:18.973Z,80.74
2023-01-13T00:56:24.394Z,80.77
2023-01-13T00:57:19.967Z,81.18
2023-01-13T00:58:18.933Z,79.64
2023-01-13T00:59:18.932Z,79.30
2023-01-13T01:00:18.900Z,79.91
2023-01-13T01:01:19.009Z,78.72
2023-01-13T01:02:18.966Z,78.79
2023-01-13T01:03:18.864Z,78.28
2023-01-13T01:04:18.850Z,78.24
2023-01-13T01:05:18.836Z,79.61
2023-01-13T01:06:18.821Z,78.65
2023-01-13T01:07:18.816Z,78.79
2023-01-13T01:08:18.798Z,79.00
2023-01-13T01:09:18.782Z,79.61
2023-01-13T01:10:18.807Z,79.41
2023-01-13T01:11:18.789Z,79.30
2023-01-13T01:12:18.755Z,80.36
2023-01-13T01:13:18.725Z,78.79
2023-01-13T01:14:18.713Z,78.69
2023-01-13T01:15:18.707Z,78.17
2023-01-13T01:16:18.773Z,78.38
2023-01-13T01:17:18.744Z,78.04
2023-01-13T01:18:18.662Z,78.14
2023-01-13T01:19:18.648Z,78.14
2023-01-13T01:20:18.635Z,77.87
2023-01-13T01:21:18.625Z,78.75
2023-01-13T01:22:18.611Z,78.45
2023-01-13T01:23:18.599Z,77.97
2023-01-13T01:24:18.594Z,77.97
2023-01-13T01:25:18.590Z,78.24
2023-01-13T01:26:18.569Z,77.63
2023-01-13T01:27:18.547Z,77.22
2023-01-13T01:28:18.542Z,77.73
2023-01-13T01:29:18.519Z,77.73
2023-01-13T01:30:18.511Z,78.34
2023-01-13T01:31:18.518Z,78.96
2023-01-13T01:32:18.479Z,78.34
2023-01-13T01:33:18.485Z,78.65
2023-01-13T01:34:18.463Z,79.78
2023-01-13T01:35:18.439Z,78.89
2023-01-13T01:36:18.475Z,78.69
2023-01-13T01:37:18.412Z,79.30
2023-01-13T01:38:18.394Z,79.10
2023-01-13T01:39:18.385Z,78.65
2023-01-13T01:40:18.368Z,78.45
2023-01-13T01:41:18.358Z,78.96
2023-01-13T01:42:18.348Z,78.24
2023-01-13T01:43:18.328Z,78.34
2023-01-13T01:44:18.321Z,77.63
2023-01-13T01:45:18.311Z,78.55
2023-01-13T01:46:18.322Z,77.32
2023-01-13T01:47:18.298Z,77.83
2023-01-13T01:48:18.264Z,77.83
2023-01-13T01:49:18.316Z,79.27
2023-01-13T01:50:18.248Z,78.55
2023-01-13T01:51:18.226Z,78.75
2023-01-13T01:52:18.225Z,78.38
2023-01-13T01:53:18.192Z,79.71
2023-01-13T01:54:18.185Z,78.89
2023-01-13T01:55:18.171Z,78.65
2023-01-13T01:56:18.152Z,79.68
2023-01-13T01:57:18.147Z,79.78
2023-01-13T01:58:18.133Z,79.71
2023-01-13T01:59:18.117Z,79.10
2023-01-13T02:00:18.099Z,79.37
2023-01-13T02:01:18.199Z,80.02
2023-01-13T02:02:18.106Z,79.20
2023-01-13T02:03:18.060Z,79.00
2023-01-13T02:04:18.047Z,78.34
2023-01-13T02:05:18.058Z,78.45
2023-01-13T02:06:18.032Z,78.86
2023-01-13T02:07:18.008Z,79.41
2023-01-13T02:08:17.993Z,80.22
2023-01-13T02:09:17.980Z,80.63
2023-01-13T02:10:17.969Z,79.10
2023-01-13T02:11:17.959Z,79.41
2023-01-13T02:12:17.945Z,79.20
2023-01-13T02:13:17.936Z,80.12
2023-01-13T02:14:17.912Z,80.19
2023-01-13T02:15:17.897Z,80.43
2023-01-13T02:16:17.956Z,79.44
2023-01-13T02:17:17.873Z,79.71
2023-01-13T02:18:17.862Z,79.30
2023-01-13T02:19:17.845Z,79.98
2023-01-13T02:20:17.845Z,79.98
2023-01-13T02:21:17.839Z,79.50
2023-01-13T02:22:17.806Z,80.94
2023-01-13T02:23:17.793Z,79.71
2023-01-13T02:24:17.785Z,79.41
2023-01-13T02:25:17.765Z,80.12
2023-01-13T02:26:17.751Z,81.04
2023-01-13T02:27:17.737Z,80.63
2023-01-13T02:28:17.747Z,79.82
2023-01-13T02:29:17.712Z,79.82
2023-01-13T02:30:17.695Z,79.41
2023-01-13T02:31:17.730Z,79.68
2023-01-13T02:32:17.687Z,80.53
2023-01-13T02:33:17.655Z,80.19
2023-01-13T02:34:17.646Z,79.78
2023-01-13T02:35:17.629Z,80.63
2023-01-13T02:36:17.619Z,81.24
2023-01-13T02:37:17.628Z,80.43
2023-01-13T02:38:17.592Z,80.43
2023-01-13T02:39:17.584Z,79.82
2023-01-13T02:40:17.598Z,80.83
2023-01-13T02:41:17.551Z,80.12
2023-01-13T02:42:17.539Z,80.83
2023-01-13T02:43:17.525Z,79.82
2023-01-13T02:44:17.515Z,80.53
2023-01-13T02:45:17.500Z,80.02
2023-01-13T02:46:17.486Z,80.08
2023-01-13T02:47:17.471Z,81.24
2023-01-13T02:48:17.458Z,81.45
2023-01-13T02:49:17.446Z,81.24
2023-01-13T02:50:17.499Z,81.49
2023-01-13T02:51:17.471Z,82.27
2023-01-13T02:52:17.402Z,81.24
2023-01-13T02:53:17.419Z,82.37
2023-01-13T02:54:17.381Z,82.07
2023-01-13T02:55:17.370Z,81.15
2023-01-13T02:56:17.356Z,81.45
2023-01-13T02:57:17.339Z,81.76
2023-01-13T02:58:17.328Z,82.41
2023-01-13T02:59:17.313Z,81.79
2023-01-13T03:00:17.311Z,81.45
2023-01-13T03:01:17.436Z,81.65
2023-01-13T03:02:17.550Z,80.88
2023-01-13T03:03:17.266Z,80.94
2023-01-13T03:04:17.258Z,80.22
2023-01-13T03:05:17.284Z,80.22
2023-01-13T03:06:17.270Z,81.31
2023-01-13T03:07:17.219Z,81.56
2023-01-13T03:08:17.220Z,81.65
2023-01-13T03:09:17.211Z,82.27
2023-01-13T03:10:17.182Z,81.65
2023-01-13T03:11:17.160Z,82.68
2023-01-13T03:12:17.149Z,82.48
2023-01-13T03:13:17.131Z,82.57
2023-01-13T03:14:17.121Z,83.39
2023-01-13T03:15:17.121Z,83.81
2023-01-13T03:16:17.149Z,84.42
2023-01-13T03:17:17.090Z,82.98
2023-01-13T03:18:17.071Z,84.11
2023-01-13T03:19:17.048Z,84.46
2023-01-13T03:20:17.049Z,85.07
2023-01-13T03:21:17.021Z,85.28
2023-01-13T03:22:17.032Z,84.97
2023-01-13T03:23:17.002Z,85.89
2023-01-13T03:24:16.999Z,86.10
2023-01-13T03:25:16.999Z,86.81
2023-01-13T03:26:16.975Z,87.12
2023-01-13T03:27:16.957Z,86.71
2023-01-13T03:28:16.933Z,85.99
2023-01-13T03:29:16.928Z,86.40
2023-01-13T03:30:16.942Z,85.79
2023-01-13T03:31:16.917Z,86.55
2023-01-13T03:32:16.887Z,85.99
2023-01-13T03:33:16.868Z,85.79
2023-01-13T03:34:16.853Z,86.96
2023-01-13T03:35:16.846Z,87.06
2023-01-13T03:36:16.830Z,87.37
2023-01-13T03:37:16.821Z,87.47
2023-01-13T03:38:16.801Z,86.40
2023-01-13T03:39:16.785Z,87.26
2023-01-13T03:40:16.797Z,87.37
2023-01-13T03:41:16.788Z,87.57
2023-01-13T03:42:16.749Z,87.73
2023-01-13T03:43:16.729Z,87.57
2023-01-13T03:44:16.714Z,87.32
2023-01-13T03:45:16.703Z,88.29
2023-01-13T03:46:16.741Z,88.35
2023-01-13T03:47:16.676Z,88.04
2023-01-13T03:48:16.675Z,88.39
2023-01-13T03:49:16.688Z,89.31
2023-01-13T03:50:16.644Z,87.43
2023-01-13T03:51:16.828Z,87.22
2023-01-13T03:52:16.614Z,87.26
2023-01-13T03:53:16.603Z,86.96
2023-01-13T03:54:16.584Z,87.67
2023-01-13T03:55:16.579Z,86.20
2023-01-13T03:56:16.561Z,86.55
2023-01-13T03:57:16.600Z,85.24
2023-01-13T03:58:16.587Z,86.26
2023-01-13T03:59:16.512Z,85.79
2023-01-13T04:00:16.499Z,84.93
2023-01-13T04:01:16.675Z,84.63
2023-01-13T04:02:16.582Z,84.46
2023-01-13T04:03:16.464Z,85.14
2023-01-13T04:04:16.453Z,85.64
2023-01-13T04:05:16.435Z,85.17
2023-01-13T04:06:16.430Z,85.07
2023-01-13T04:07:16.410Z,85.03
2023-01-13T04:08:16.396Z,84.63
2023-01-13T04:09:16.387Z,85.64
2023-01-13T04:10:16.375Z,86.61
2023-01-13T04:11:16.354Z,85.28
2023-01-13T04:12:16.347Z,85.99
2023-01-13T04:13:16.364Z,85.17
2023-01-13T04:14:16.325Z,84.93
2023-01-13T04:15:16.299Z,84.97
2023-01-13T04:16:16.286Z,84.63
2023-01-13T04:17:16.291Z,85.28
2023-01-13T04:18:16.260Z,85.14
2023-01-13T04:19:16.258Z,85.55
2023-01-13T04:20:16.238Z,85.48
2023-01-13T04:21:16.225Z,84.11
2023-01-13T04:22:16.209Z,83.91
2023-01-13T04:23:16.203Z,84.63
2023-01-13T04:24:16.192Z,84.72
2023-01-13T04:25:16.164Z,84.63
2023-01-13T04:26:16.162Z,84.31
2023-01-13T04:27:16.146Z,84.22
2023-01-13T04:28:16.139Z,82.98
2023-01-13T04:29:16.148Z,83.39
2023-01-13T04:30:16.106Z,83.50
2023-01-13T04:31:16.179Z,84.07
2023-01-13T04:32:16.073Z,83.60
2023-01-13T04:33:16.057Z,82.98
2023-01-13T04:34:16.048Z,83.54
2023-01-13T04:35:16.026Z,82.98
2023-01-13T04:36:16.017Z,83.50
2023-01-13T04:37:16.007Z,83.91
2023-01-13T04:38:15.993Z,84.11
2023-01-13T04:39:15.981Z,84.72
2023-01-13T04:40:15.978Z,84.52
2023-01-13T04:41:15.989Z,83.50
2023-01-13T04:42:15.937Z,84.63
2023-01-13T04:43:16.099Z,84.22
2023-01-13T04:44:15.913Z,84.36
2023-01-13T04:45:15.933Z,85.03
2023-01-13T04:46:15.949Z,85.24
2023-01-13T04:47:15.874Z,85.58
2023-01-13T04:48:15.867Z,84.25
2023-01-13T04:49:15.843Z,84.72
2023-01-13T04:50:15.836Z,84.36
2023-01-13T04:51:15.820Z,84.52
2023-01-13T04:52:15.810Z,82.68
2023-01-13T04:53:15.800Z,82.43
2023-01-13T04:54:15.780Z,83.39
2023-01-13T04:55:15.761Z,82.84
2023-01-13T04:56:15.751Z,83.60
2023-01-13T04:57:15.737Z,84.52
2023-01-13T04:58:15.724Z,84.42
2023-01-13T04:59:15.714Z,84.83
2023-01-13T05:00:15.695Z,84.66
2023-01-13T05:01:15.861Z,83.60
2023-01-13T05:02:15.679Z,83.44
2023-01-13T05:03:15.661Z,83.74
2023-01-13T05:04:15.683Z,84.31
2023-01-13T05:05:15.630Z,82.78
2023-01-13T05:06:15.617Z,82.75
2023-01-13T05:07:15.601Z,82.27
2023-01-13T05:08:15.617Z,83.15
2023-01-13T05:09:15.623Z,83.46
2023-01-13T05:10:15.564Z,83.87
2023-01-13T05:11:15.544Z,83.60
2023-01-13T05:12:15.533Z,83.36
2023-01-13T05:13:15.560Z,83.39
2023-01-13T05:14:15.509Z,82.95
2023-01-13T05:15:15.498Z,82.43
2023-01-13T05:16:15.509Z,82.23
2023-01-13T05:17:15.534Z,82.03
2023-01-13T05:18:15.458Z,82.13
2023-01-13T05:19:15.438Z,82.75
2023-01-13T05:20:15.429Z,82.75
2023-01-13T05:21:15.418Z,82.34
2023-01-13T05:22:15.417Z,82.03
2023-01-13T05:23:15.401Z,81.62
2023-01-13T05:24:15.380Z,81.93
2023-01-13T05:25:15.369Z,82.48
2023-01-13T05:26:15.351Z,82.57
2023-01-13T05:27:15.338Z,82.27
2023-01-13T05:28:15.316Z,81.82
2023-01-13T05:29:15.320Z,82.13
2023-01-13T05:30:15.297Z,83.19
2023-01-13T05:31:15.443Z,82.95
2023-01-13T05:32:15.269Z,82.57
2023-01-13T05:33:15.288Z,82.89
2023-01-13T05:34:15.246Z,82.57
2023-01-13T05:35:15.225Z,82.92
2023-01-13T05:36:15.218Z,82.27
2023-01-13T05:37:15.200Z,83.09
2023-01-13T05:38:15.187Z,83.81
2023-01-13T05:39:15.182Z,84.11
2023-01-13T05:40:15.156Z,84.66
2023-01-13T05:41:15.152Z,83.19
2023-01-13T05:42:15.138Z,82.68
2023-01-13T05:43:15.131Z,83.09
2023-01-13T05:44:15.111Z,83.60
2023-01-13T05:45:15.099Z,83.29
2023-01-13T05:46:15.236Z,83.09
2023-01-13T05:47:15.072Z,83.03
2023-01-13T05:48:15.050Z,83.81
2023-01-13T05:49:15.061Z,83.60
2023-01-13T05:50:15.044Z,83.44
2023-01-13T05:51:15.020Z,84.83
2023-01-13T05:52:15.000Z,83.60
2023-01-13T05:53:14.992Z,83.81
2023-01-13T05:54:14.972Z,84.25
2023-01-13T05:55:14.977Z,85.07
2023-01-13T05:56:14.943Z,84.87
2023-01-13T05:57:14.938Z,84.36
2023-01-13T05:58:14.922Z,85.75
2023-01-13T05:59:14.916Z,85.38
2023-01-13T06:00:14.895Z,85.17
2023-01-13T06:01:14.927Z,84.56
2023-01-13T06:02:14.867Z,84.46
2023-01-13T06:03:14.905Z,84.46
2023-01-13T06:04:14.884Z,85.28
2023-01-13T06:05:14.847Z,86.10
2023-01-13T06:06:14.814Z,85.99
2023-01-13T06:07:14.803Z,85.69
2023-01-13T06:08:14.794Z,86.40
2023-01-13T06:09:14.783Z,87.02
2023-01-13T06:10:14.765Z,87.37
2023-01-13T06:11:14.749Z,86.04
2023-01-13T06:12:14.732Z,86.40
2023-01-13T06:13:14.717Z,87.12
2023-01-13T06:14:14.702Z,86.91
2023-01-13T06:15:14.699Z,87.57
2023-01-13T06:16:14.778Z,88.24
2023-01-13T06:17:14.671Z,88.59
2023-01-13T06:18:14.661Z,87.32
2023-01-13T06:19:14.636Z,88.80
2023-01-13T06:20:14.624Z,88.18
2023-01-13T06:21:14.638Z,89.21
2023-01-13T06:22:14.598Z,88.39
2023-01-13T06:23:14.588Z,89.00
2023-01-13T06:24:14.577Z,89.11
2023-01-13T06:25:14.560Z,87.88
2023-01-13T06:26:14.560Z,87.57
2023-01-13T06:27:14.537Z,88.29
2023-01-13T06:28:14.517Z,88.49
2023-01-13T06:29:14.512Z,88.39
2023-01-13T06:30:14.495Z,88.49
2023-01-13T06:31:14.528Z,88.49
2023-01-13T06:32:14.467Z,88.29
2023-01-13T06:33:14.460Z,88.76
2023-01-13T06:34:14.443Z,88.80
2023-01-13T06:35:14.426Z,88.29
2023-01-13T06:36:14.416Z,88.08
2023-01-13T06:37:14.427Z,89.11
2023-01-13T06:38:14.382Z,88.39
2023-01-13T06:39:14.374Z,88.59
2023-01-13T06:40:14.358Z,89.00
2023-01-13T06:41:14.353Z,88.90
2023-01-13T06:42:14.329Z,89.21
2023-01-13T06:43:16.145Z,88.29
2023-01-13T06:44:14.304Z,88.29
2023-01-13T06:45:14.292Z,89.51
2023-01-13T06:46:14.370Z,89.00
2023-01-13T06:47:14.270Z,89.31
2023-01-13T06:48:14.253Z,89.11
2023-01-13T06:49:14.241Z,88.59
2023-01-13T06:50:14.222Z,89.00
2023-01-13T06:51:14.207Z,88.80
2023-01-13T06:52:14.196Z,89.42
2023-01-13T06:53:14.208Z,88.80
2023-01-13T06:54:14.174Z,89.42
2023-01-13T06:55:14.165Z,89.00
2023-01-13T06:56:14.151Z,89.11
2023-01-13T06:57:14.139Z,89.21
2023-01-13T06:58:14.119Z,90.34
2023-01-13T06:59:14.109Z,90.95
2023-01-13T07:00:14.092Z,90.03
2023-01-13T07:01:14.273Z,90.64
2023-01-13T07:02:14.189Z,89.72
2023-01-13T07:03:14.061Z,90.23
2023-01-13T07:04:14.047Z,90.03
2023-01-13T07:05:14.037Z,89.37
2023-01-13T07:06:14.017Z,89.31
2023-01-13T07:07:14.003Z,89.72
2023-01-13T07:08:13.991Z,89.00
2023-01-13T07:09:14.026Z,89.72
2023-01-13T07:10:13.961Z,89.00
2023-01-13T07:11:13.946Z,89.00
2023-01-13T07:12:13.931Z,89.00
2023-01-13T07:13:13.913Z,88.70
2023-01-13T07:14:13.902Z,88.80
2023-01-13T07:15:13.888Z,88.24
2023-01-13T07:16:13.910Z,88.39
2023-01-13T07:17:13.870Z,89.42
2023-01-13T07:18:13.849Z,89.11
2023-01-13T07:19:13.847Z,88.90
2023-01-13T07:20:13.823Z,89.42
2023-01-13T07:21:13.813Z,89.31
2023-01-13T07:22:13.797Z,88.90
2023-01-13T07:23:13.785Z,89.00
2023-01-13T07:24:13.769Z,89.51
2023-01-13T07:25:13.787Z,89.11
2023-01-13T07:26:13.742Z,88.90
2023-01-13T07:27:13.741Z,89.21
2023-01-13T07:28:13.711Z,89.51
2023-01-13T07:29:13.703Z,89.72
2023-01-13T07:30:13.685Z,88.90
2023-01-13T07:31:13.689Z,88.80
2023-01-13T07:32:13.667Z,89.42
2023-01-13T07:33:13.652Z,89.00
2023-01-13T07:34:13.639Z,90.13
2023-01-13T07:35:13.628Z,89.21
2023-01-13T07:36:13.637Z,89.00
2023-01-13T07:37:13.595Z,89.11
2023-01-13T07:38:13.577Z,89.27
2023-01-13T07:39:13.564Z,89.62
2023-01-13T07:40:13.543Z,89.11
2023-01-13T07:41:13.561Z,90.03
2023-01-13T07:42:13.527Z,89.92
2023-01-13T07:43:13.523Z,89.51
2023-01-13T07:44:13.511Z,88.90
2023-01-13T07:45:13.498Z,89.31
2023-01-13T07:46:13.506Z,88.70
2023-01-13T07:47:13.462Z,88.70
2023-01-13T07:48:13.454Z,89.31
2023-01-13T07:49:13.431Z,88.80
2023-01-13T07:50:13.421Z,89.72
2023-01-13T07:51:13.425Z,90.23
2023-01-13T07:52:13.388Z,89.92
2023-01-13T07:53:13.373Z,89.72
2023-01-13T07:54:13.360Z,89.89
2023-01-13T07:55:13.352Z,89.51
2023-01-13T07:56:13.337Z,89.42
2023-01-13T07:57:13.342Z,89.00
2023-01-13T07:58:13.305Z,89.51
2023-01-13T07:59:13.300Z,89.42
2023-01-13T08:00:13.281Z,90.03
2023-01-13T08:01:13.521Z,89.21
2023-01-13T08:02:13.408Z,89.68
2023-01-13T08:03:13.245Z,89.83
2023-01-13T08:04:13.231Z,89.62
2023-01-13T08:05:13.213Z,89.78
2023-01-13T08:06:13.199Z,90.30
2023-01-13T08:07:13.194Z,90.30
2023-01-13T08:08:13.177Z,89.98
2023-01-13T08:09:13.166Z,89.78
2023-01-13T08:10:13.151Z,91.01
2023-01-13T08:11:13.141Z,91.87
2023-01-13T08:12:13.123Z,89.83
2023-01-13T08:13:13.135Z,89.58
2023-01-13T08:14:13.101Z,90.64
2023-01-13T08:15:13.077Z,89.78
2023-01-13T08:16:13.128Z,89.58
2023-01-13T08:17:13.086Z,89.17
2023-01-13T08:18:13.058Z,88.65
2023-01-13T08:19:13.025Z,88.86
2023-01-13T08:20:13.063Z,89.23
2023-01-13T08:21:13.036Z,90.36
2023-01-13T08:22:12.987Z,91.48
2023-01-13T08:23:12.985Z,94.55
2023-01-13T08:24:12.961Z,97.87
2023-01-13T08:25:12.952Z,98.13
2023-01-13T08:26:12.937Z,99.91
2023-01-13T08:27:12.951Z,99.99
2023-01-13T08:28:12.929Z,99.99
2023-01-13T08:29:14.852Z,99.99
2023-01-13T08:30:12.881Z,99.99
2023-01-13T08:31:12.998Z,99.99
2023-01-13T08:32:12.856Z,99.99
2023-01-13T08:33:12.843Z,99.99
2023-01-13T08:34:12.828Z,98.77
2023-01-13T08:35:12.812Z,97.54
2023-01-13T08:36:12.790Z,97.03
2023-01-13T08:37:12.782Z,98.25
2023-01-13T08:38:12.770Z,97.69
2023-01-13T08:39:12.770Z,97.28
2023-01-13T08:40:12.756Z,98.61
2023-01-13T08:41:12.733Z,96.97
2023-01-13T08:42:12.714Z,96.15
2023-01-13T08:43:12.700Z,98.30
2023-01-13T08:44:12.690Z,98.30
2023-01-13T08:45:12.698Z,97.07
2023-01-13T08:46:12.751Z,97.89
2023-01-13T08:47:12.660Z,97.99
2023-01-13T08:48:12.640Z,96.91
2023-01-13T08:49:12.628Z,98.45
2023-01-13T08:50:12.617Z,97.83
2023-01-13T08:51:12.604Z,97.02
2023-01-13T08:52:12.582Z,97.73
2023-01-13T08:53:12.572Z,97.83
2023-01-13T08:54:12.561Z,98.04
2023-01-13T08:55:12.548Z,96.60
2023-01-13T08:56:12.544Z,95.98
2023-01-13T08:57:12.646Z,96.30
2023-01-13T08:58:15.554Z,95.37
2023-01-13T08:59:12.484Z,96.19
2023-01-13T09:00:12.472Z,95.89
2023-01-13T09:01:12.621Z,98.35
2023-01-13T09:02:12.652Z,96.30
2023-01-13T09:03:12.442Z,96.40
2023-01-13T09:04:12.463Z,95.06
2023-01-13T09:05:12.405Z,94.55
2023-01-13T09:06:12.397Z,94.45
2023-01-13T09:07:12.384Z,96.81
2023-01-13T09:08:12.368Z,96.09
2023-01-13T09:09:12.365Z,95.47
2023-01-13T09:10:12.340Z,96.40
2023-01-13T09:11:12.331Z,95.37
2023-01-13T09:12:12.318Z,94.55
2023-01-13T09:13:12.304Z,94.55
2023-01-13T09:14:12.287Z,93.83
2023-01-13T09:15:12.271Z,93.63
2023-01-13T09:16:12.277Z,93.38
2023-01-13T09:17:12.281Z,95.74
2023-01-13T09:18:12.229Z,94.34
2023-01-13T09:19:12.226Z,94.76
2023-01-13T09:20:12.215Z,96.60
2023-01-13T09:21:12.199Z,95.17
2023-01-13T09:22:12.179Z,95.27
2023-01-13T09:23:12.165Z,95.02
2023-01-13T09:24:12.156Z,95.53
2023-01-13T09:25:12.146Z,96.50
2023-01-13T09:26:12.133Z,96.15
2023-01-13T09:27:12.114Z,98.35
2023-01-13T09:28:12.104Z,99.99
2023-01-13T09:29:12.091Z,99.02
2023-01-13T09:30:12.073Z,97.79
2023-01-13T09:31:12.098Z,97.99
2023-01-13T09:32:12.061Z,99.99
2023-01-13T09:33:12.059Z,98.57
2023-01-13T09:34:12.029Z,98.46
2023-01-13T09:35:12.017Z,97.79
2023-01-13T09:36:12.005Z,98.16
2023-01-13T09:37:11.988Z,98.36
2023-01-13T09:38:11.973Z,99.49
2023-01-13T09:39:11.955Z,98.57
2023-01-13T09:40:11.942Z,98.25
2023-01-13T09:41:11.924Z,99.02
2023-01-13T09:42:11.912Z,99.99
2023-01-13T09:43:11.909Z,98.97
2023-01-13T09:44:11.892Z,98.67
2023-01-13T09:45:11.875Z,99.12
2023-01-13T09:46:11.944Z,98.16
2023-01-13T09:47:14.052Z,98.77
2023-01-13T09:48:11.841Z,97.85
2023-01-13T09:49:11.842Z,97.89
2023-01-13T09:50:11.808Z,97.58
2023-01-13T09:51:11.868Z,97.07
2023-01-13T09:52:11.790Z,96.92
2023-01-13T09:53:11.818Z,96.92
2023-01-13T09:54:11.753Z,95.69
2023-01-13T09:55:11.756Z,95.28
2023-01-13T09:56:11.747Z,95.32
2023-01-13T09:57:11.723Z,98.25
2023-01-13T09:58:11.709Z,96.25
2023-01-13T09:59:11.692Z,95.68
2023-01-13T10:00:11.678Z,97.22
2023-01-13T10:01:11.700Z,96.55
2023-01-13T10:02:11.656Z,97.06
2023-01-13T10:03:11.677Z,96.55
2023-01-13T10:04:11.640Z,96.44
2023-01-13T10:05:11.631Z,95.52
2023-01-13T10:06:11.606Z,94.70
2023-01-13T10:07:11.581Z,95.15
2023-01-13T10:08:11.575Z,94.64
2023-01-13T10:09:11.557Z,94.64
2023-01-13T10:10:11.547Z,95.05
2023-01-13T10:11:11.532Z,94.95
2023-01-13T10:12:11.540Z,95.30
2023-01-13T10:13:11.511Z,96.43
2023-01-13T10:14:11.493Z,95.09
2023-01-13T10:15:11.478Z,95.09
2023-01-13T10:16:11.538Z,96.28
2023-01-13T10:17:11.449Z,95.20
2023-01-13T10:18:11.442Z,94.64
2023-01-13T10:19:11.422Z,94.54
2023-01-13T10:20:11.462Z,96.80
2023-01-13T10:21:11.418Z,96.69
2023-01-13T10:22:11.387Z,96.94
2023-01-13T10:23:11.369Z,97.00
2023-01-13T10:24:11.363Z,96.39
2023-01-13T10:25:11.345Z,95.46
2023-01-13T10:26:11.395Z,95.15
2023-01-13T10:27:11.329Z,97.52
2023-01-13T10:28:11.306Z,95.97
2023-01-13T10:29:11.294Z,95.77
2023-01-13T10:30:11.276Z,95.36
2023-01-13T10:31:11.325Z,95.25
2023-01-13T10:32:11.250Z,95.21
2023-01-13T10:33:11.234Z,98.75
2023-01-13T10:34:11.229Z,98.54
2023-01-13T10:35:11.212Z,98.80
2023-01-13T10:36:11.198Z,97.53
2023-01-13T10:37:11.214Z,96.45
2023-01-13T10:38:11.176Z,96.40
2023-01-13T10:39:11.153Z,96.62
2023-01-13T10:40:11.143Z,96.92
2023-01-13T10:41:11.130Z,98.21
2023-01-13T10:42:11.117Z,98.00
2023-01-13T10:43:11.105Z,97.61
2023-01-13T10:44:11.100Z,99.25
2023-01-13T10:45:11.083Z,99.99
2023-01-13T10:46:11.216Z,99.99
2023-01-13T10:47:11.049Z,99.99
2023-01-13T10:48:11.037Z,99.99
2023-01-13T10:49:11.017Z,99.99
2023-01-13T10:50:11.013Z,99.99
2023-01-13T10:51:10.996Z,99.99
2023-01-13T10:52:11.053Z,99.75
2023-01-13T10:53:10.999Z,99.34
2023-01-13T10:54:10.965Z,99.85
2023-01-13T10:55:10.938Z,99.29
2023-01-13T10:56:10.936Z,99.99
2023-01-13T10:57:10.922Z,99.99
2023-01-13T10:58:10.908Z,99.99
2023-01-13T10:59:10.892Z,99.99
2023-01-13T11:00:10.891Z,99.99
2023-01-13T11:01:10.935Z,99.99
2023-01-13T11:02:24.771Z,99.99
2023-01-13T11:03:11.858Z,99.99
2023-01-13T11:04:10.822Z,99.99
2023-01-13T11:05:10.853Z,98.87
2023-01-13T11:06:10.796Z,99.28
2023-01-13T11:07:10.787Z,99.08
2023-01-13T11:08:10.769Z,98.57
2023-01-13T11:09:10.787Z,98.61
2023-01-13T11:10:10.759Z,99.99
2023-01-13T11:11:10.727Z,99.99
2023-01-13T11:12:10.717Z,99.99
2023-01-13T11:13:10.699Z,99.99
2023-01-13T11:14:10.688Z,98.50
2023-01-13T11:15:10.688Z,96.34
2023-01-13T11:16:10.703Z,95.21
2023-01-13T11:17:10.689Z,94.53
2023-01-13T11:18:10.634Z,92.78
2023-01-13T11:19:10.637Z,93.09
2023-01-13T11:20:10.630Z,92.78
2023-01-13T11:21:10.593Z,92.78
2023-01-13T11:22:10.622Z,93.90
2023-01-13T11:23:10.576Z,92.93
2023-01-13T11:24:10.567Z,93.34
2023-01-13T11:25:10.574Z,92.76
2023-01-13T11:26:10.539Z,91.83
2023-01-13T11:27:10.511Z,91.73
2023-01-13T11:28:10.503Z,91.42
2023-01-13T11:29:10.489Z,90.97
2023-01-13T11:30:10.475Z,91.17
2023-01-13T11:31:10.532Z,90.97
2023-01-13T11:32:10.461Z,91.42
2023-01-13T11:33:10.429Z,91.42
2023-01-13T11:34:10.421Z,91.11
2023-01-13T11:35:10.411Z,91.07
2023-01-13T11:36:10.400Z,90.80
2023-01-13T11:37:10.459Z,91.73
2023-01-13T11:38:10.377Z,93.12
2023-01-13T11:39:10.359Z,92.70
2023-01-13T11:40:10.365Z,93.18
2023-01-13T11:41:10.358Z,92.29
2023-01-13T11:42:10.316Z,91.98
2023-01-13T11:43:10.300Z,94.62
2023-01-13T11:44:10.288Z,93.84
2023-01-13T11:45:10.277Z,93.22
2023-01-13T11:46:10.262Z,92.44
2023-01-13T11:47:10.250Z,92.64
2023-01-13T11:48:10.257Z,93.78
2023-01-13T11:49:10.228Z,93.22
2023-01-13T11:50:10.215Z,92.74
2023-01-13T11:51:10.218Z,92.13
2023-01-13T11:52:10.181Z,92.02
2023-01-13T11:53:10.167Z,91.98
2023-01-13T11:54:10.155Z,91.36
2023-01-13T11:55:10.145Z,91.40
2023-01-13T11:56:10.121Z,91.26
2023-01-13T11:57:10.164Z,91.36
2023-01-13T11:58:10.099Z,92.13
2023-01-13T11:59:10.091Z,92.23
2023-01-13T12:00:10.089Z,91.71
2023-01-13T12:01:10.168Z,91.50
2023-01-13T12:02:10.101Z,91.61
2023-01-13T12:03:10.145Z,90.99
2023-01-13T12:04:10.023Z,91.36
2023-01-13T12:05:10.012Z,91.36
2023-01-13T12:06:09.992Z,91.77
2023-01-13T12:07:10.000Z,92.08
2023-01-13T12:08:09.964Z,91.67
2023-01-13T12:09:09.956Z,91.63
2023-01-13T12:10:13.407Z,91.83
2023-01-13T12:11:09.929Z,92.00
2023-01-13T12:12:09.907Z,91.58
2023-01-13T12:13:09.915Z,91.17
2023-01-13T12:14:09.892Z,90.97
2023-01-13T12:15:09.873Z,90.86
2023-01-13T12:16:09.902Z,90.86
2023-01-13T12:17:09.847Z,92.61
2023-01-13T12:18:09.830Z,94.89
2023-01-13T12:19:09.813Z,96.89
2023-01-13T12:20:09.805Z,96.12
2023-01-13T12:21:09.786Z,95.61
2023-01-13T12:22:09.802Z,95.50
2023-01-13T12:23:09.765Z,95.30
2023-01-13T12:24:09.756Z,96.77
2023-01-13T12:25:09.728Z,98.33
2023-01-13T12:26:09.728Z,99.27
2023-01-13T12:27:09.720Z,99.99
2023-01-13T12:28:09.698Z,99.99
2023-01-13T12:29:09.736Z,99.38
2023-01-13T12:30:09.679Z,99.99
2023-01-13T12:31:09.653Z,99.99
2023-01-13T12:32:09.643Z,99.99
2023-01-13T12:33:09.628Z,99.99
2023-01-13T12:34:09.630Z,99.60
2023-01-13T12:35:09.598Z,99.99
2023-01-13T12:36:09.595Z,99.99
2023-01-13T12:37:09.572Z,99.99
2023-01-13T12:38:09.562Z,99.99
2023-01-13T12:39:09.563Z,99.99
2023-01-13T12:40:09.562Z,99.99
2023-01-13T12:41:09.532Z,99.99
2023-01-13T12:42:09.540Z,99.99
2023-01-13T12:43:09.509Z,99.79
2023-01-13T12:44:09.523Z,99.99
2023-01-13T12:45:09.522Z,99.48
2023-01-13T12:46:09.482Z,99.99
2023-01-13T12:47:09.457Z,98.60
2023-01-13T12:48:09.433Z,98.45
2023-01-13T12:49:09.412Z,97.42
2023-01-13T12:50:09.407Z,96.59
2023-01-13T12:51:09.392Z,96.49
2023-01-13T12:52:09.381Z,95.73